Time;durP1;ratioP1;P1;durP2;ratioP2;P2;SDS_P1;SDS_P2;PMS_P1;PMS_P2;Temp;Humidity;BMP_temperature;BMP_pressure;BME280_temperature;BME280_humidity;BME280_pressure;Samples;Min_cycle;Max_cycle;Signal;HPM_P1;HPM_P2
2023/04/03 00:02:27;;;;;;;1.37;1.27;;;;;6.60;96883.00;;;;5111213;28;20255;-69
2023/04/03 00:05:16;;;;;;;1.87;1.43;;;;;6.70;96882.00;;;;5110881;28;20210;-69
2023/04/03 00:08:07;;;;;;;4.10;1.87;;;;;6.50;96887.00;;;;5104161;28;20677;-69
2023/04/03 00:10:56;;;;;;;1.53;1.40;;;;;6.40;96893.00;;;;5104153;28;20238;-70
2023/04/03 00:13:46;;;;;;;1.87;1.30;;;;;6.40;96890.00;;;;5104802;28;20742;-74
2023/04/03 00:16:35;;;;;;;1.97;1.70;;;;;6.30;96892.00;;;;5110686;28;20203;-74
2023/04/03 00:19:25;;;;;;;1.47;1.37;;;;;6.40;96898.00;;;;5109816;28;20583;-74
2023/04/03 00:22:14;;;;;;;2.07;1.50;;;;;6.40;96901.00;;;;5111434;28;20217;-75
2023/04/03 00:25:03;;;;;;;1.90;1.50;;;;;6.20;96903.00;;;;5107544;28;20283;-73
2023/04/03 00:27:52;;;;;;;1.63;1.53;;;;;6.40;96899.00;;;;5102284;27;20209;-73
2023/04/03 00:30:41;;;;;;;3.27;1.30;;;;;6.50;96897.00;;;;5103828;28;20689;-73
2023/04/03 00:33:30;;;;;;;1.93;1.20;;;;;6.50;96897.00;;;;5106760;28;20226;-73
2023/04/03 00:36:20;;;;;;;2.33;1.80;;;;;6.40;96906.00;;;;5108718;28;20681;-73
2023/04/03 00:39:10;;;;;;;1.47;1.37;;;;;6.20;96899.00;;;;5107501;28;20207;-72
2023/04/03 00:41:59;;;;;;;2.40;1.33;;;;;6.30;96901.00;;;;5110837;28;20219;-73
2023/04/03 00:45:26;;;;;;;2.77;2.57;;;;;6.10;96908.00;;;;5106603;28;20271;-75
2023/04/03 00:48:18;;;;;;;1.70;1.60;;;;;6.20;96896.00;;;;5101916;28;20210;-73
2023/04/03 00:51:10;;;;;;;1.77;1.67;;;;;6.30;96902.00;;;;5107808;28;20222;-73
2023/04/03 00:54:02;;;;;;;2.07;1.73;;;;;5.90;96905.00;;;;5106050;28;20203;-69
2023/04/03 00:56:53;;;;;;;1.97;1.77;;;;;6.00;96910.00;;;;5104822;28;20244;-71
2023/04/03 00:59:44;;;;;;;1.77;1.67;;;;;6.00;96905.00;;;;5109675;28;20195;-73
2023/04/03 01:02:33;;;;;;;1.80;1.30;;;;;6.10;96910.00;;;;5096589;28;20202;-74
2023/04/03 01:05:23;;;;;;;1.30;1.20;;;;;6.00;96912.00;;;;5099250;28;20256;-66
2023/04/03 01:08:12;;;;;;;1.23;1.23;;;;;5.80;96912.00;;;;5101179;28;20217;-72
2023/04/03 01:11:02;;;;;;;1.40;1.30;;;;;5.90;96917.00;;;;5110459;28;20276;-72
2023/04/03 01:13:51;;;;;;;1.37;1.27;;;;;5.70;96902.00;;;;5105645;28;20625;-75
2023/04/03 01:16:40;;;;;;;1.70;1.60;;;;;5.90;96915.00;;;;5102639;28;20260;-75
2023/04/03 01:19:29;;;;;;;2.83;1.47;;;;;5.90;96924.00;;;;5109658;28;20207;-75
2023/04/03 01:22:22;;;;;;;2.23;1.40;;;;;5.90;96919.00;;;;5109289;28;20203;-74
2023/04/03 01:25:11;;;;;;;1.70;1.43;;;;;5.80;96908.00;;;;5109845;28;20323;-74
2023/04/03 01:28:01;;;;;;;2.97;1.90;;;;;5.80;96922.00;;;;5099375;28;20203;-73
2023/04/03 01:30:55;;;;;;;1.73;1.20;;;;;5.50;96912.00;;;;5093654;28;20289;-69
2023/04/03 01:33:45;;;;;;;1.70;1.60;;;;;5.70;96911.00;;;;5106044;28;20248;-73
2023/04/03 01:36:34;;;;;;;2.00;1.47;;;;;5.70;96916.00;;;;5110368;28;20287;-71
2023/04/03 01:39:23;;;;;;;1.37;1.23;;;;;5.30;96911.00;;;;5109125;28;20697;-68
2023/04/03 01:42:12;;;;;;;1.47;1.37;;;;;5.60;96912.00;;;;5086606;28;20290;-68
2023/04/03 01:45:01;;;;;;;1.83;1.70;;;;;5.50;96906.00;;;;5106675;28;20497;-72
2023/04/03 01:47:50;;;;;;;3.73;1.57;;;;;5.40;96918.00;;;;5091135;28;20268;-74
2023/04/03 01:50:41;;;;;;;1.77;1.67;;;;;5.60;96921.00;;;;5099389;28;20219;-74
2023/04/03 01:53:30;;;;;;;1.47;1.37;;;;;5.30;96927.00;;;;5093913;28;20202;-73
2023/04/03 01:56:19;;;;;;;1.73;1.63;;;;;5.60;96929.00;;;;5092727;28;20211;-73
2023/04/03 01:59:08;;;;;;;1.20;1.10;;;;;5.60;96921.00;;;;5092727;28;20253;-73
2023/04/03 02:01:57;;;;;;;1.90;1.80;;;;;5.50;96916.00;;;;5095855;28;20215;-74
2023/04/03 02:04:47;;;;;;;1.13;1.13;;;;;5.40;96916.00;;;;5102362;28;20894;-73
2023/04/03 02:07:37;;;;;;;1.13;1.13;;;;;5.40;96931.00;;;;5101737;27;20198;-73
2023/04/03 02:10:26;;;;;;;4.80;1.63;;;;;5.20;96922.00;;;;5103910;28;20522;-73
2023/04/03 02:13:15;;;;;;;3.43;1.73;;;;;5.10;96925.00;;;;5098087;28;20474;-74
2023/04/03 02:16:09;;;;;;;2.73;1.73;;;;;5.20;96927.00;;;;5105928;28;20217;-74
2023/04/03 02:18:58;;;;;;;2.37;1.63;;;;;5.20;96921.00;;;;5103098;28;20412;-74
2023/04/03 02:21:47;;;;;;;1.43;1.30;;;;;5.10;96916.00;;;;5103043;28;20513;-74
2023/04/03 02:24:38;;;;;;;1.17;1.13;;;;;4.90;96918.00;;;;5101341;28;20452;-73
2023/04/03 02:27:27;;;;;;;1.47;1.30;;;;;5.20;96922.00;;;;5105023;28;21009;-74
2023/04/03 02:30:16;;;;;;;1.37;1.27;;;;;5.20;96914.00;;;;5103477;28;21108;-74
2023/04/03 02:33:05;;;;;;;3.40;1.92;;;;;5.20;96915.00;;;;5097598;28;20408;-74
2023/04/03 02:35:55;;;;;;;1.90;1.65;;;;;5.20;96915.00;;;;5098559;28;20478;-73
2023/04/03 02:38:45;;;;;;;1.73;1.60;;;;;5.10;96917.00;;;;5102995;28;20395;-73
2023/04/03 02:41:35;;;;;;;1.73;1.63;;;;;5.00;96910.00;;;;5105424;28;20221;-74
2023/04/03 02:44:24;;;;;;;3.50;1.83;;;;;5.00;96908.00;;;;5105387;28;20610;-75
2023/04/03 02:47:13;;;;;;;1.50;1.40;;;;;4.90;96910.00;;;;5104154;28;20700;-74
2023/04/03 02:50:02;;;;;;;1.77;1.67;;;;;5.30;96918.00;;;;5102318;28;20810;-74
2023/04/03 02:52:51;;;;;;;1.50;1.40;;;;;5.40;96923.00;;;;5098025;28;20218;-74
2023/04/03 02:55:40;;;;;;;1.30;1.20;;;;;5.30;96916.00;;;;5101855;28;20262;-75
2023/04/03 02:58:30;;;;;;;1.70;1.50;;;;;5.10;96917.00;;;;5100227;28;20841;-73
2023/04/03 03:01:19;;;;;;;1.50;1.40;;;;;5.20;96930.00;;;;5099620;28;20493;-75
2023/04/03 03:04:08;;;;;;;1.40;1.30;;;;;5.30;96920.00;;;;5101446;28;20468;-75
2023/04/03 03:06:57;;;;;;;1.90;1.80;;;;;5.50;96926.00;;;;5097725;28;20256;-75
2023/04/03 03:09:46;;;;;;;1.47;1.23;;;;;5.40;96913.00;;;;5096167;28;20217;-74
2023/04/03 03:12:35;;;;;;;2.10;1.83;;;;;5.10;96912.00;;;;5091566;28;20921;-74
2023/04/03 03:15:25;;;;;;;6.00;1.50;;;;;5.50;96916.00;;;;5095717;28;20207;-74
2023/04/03 03:18:15;;;;;;;2.93;1.53;;;;;5.50;96912.00;;;;5089964;28;20211;-74
2023/04/03 03:21:05;;;;;;;3.43;1.30;;;;;5.20;96908.00;;;;5093342;28;20600;-73
2023/04/03 03:23:54;;;;;;;2.10;1.73;;;;;5.50;96912.00;;;;5099390;28;20433;-74
2023/04/03 03:26:43;;;;;;;1.97;1.30;;;;;5.30;96919.00;;;;5099265;28;20429;-75
2023/04/03 03:29:32;;;;;;;1.97;1.70;;;;;5.50;96923.00;;;;5102030;28;20442;-74
2023/04/03 03:32:22;;;;;;;1.47;1.33;;;;;5.40;96914.00;;;;5096773;28;20433;-74
2023/04/03 03:35:11;;;;;;;1.17;1.07;;;;;5.40;96924.00;;;;5108801;28;20202;-74
2023/04/03 03:38:00;;;;;;;1.53;1.43;;;;;5.30;96919.00;;;;5108734;28;20206;-74
2023/04/03 03:40:49;;;;;;;1.30;1.20;;;;;5.30;96920.00;;;;5107638;28;20479;-73
2023/04/03 03:43:38;;;;;;;1.40;1.30;;;;;5.40;96919.00;;;;5105391;28;20207;-74
2023/04/03 03:46:27;;;;;;;1.50;1.27;;;;;5.40;96914.00;;;;5108251;27;20252;-73
2023/04/03 03:49:18;;;;;;;1.73;1.63;;;;;5.30;96917.00;;;;5105893;28;20202;-74
2023/04/03 03:52:10;;;;;;;1.43;1.23;;;;;5.20;96907.00;;;;5099451;28;20252;-75
2023/04/03 03:54:59;;;;;;;1.43;1.33;;;;;5.50;96906.00;;;;5102957;28;20199;-74
2023/04/03 03:57:48;;;;;;;1.50;1.33;;;;;5.70;96920.00;;;;5103813;28;20665;-73
2023/04/03 04:00:37;;;;;;;3.07;1.67;;;;;5.60;96922.00;;;;5106412;28;20497;-72
2023/04/03 04:03:26;;;;;;;2.27;1.27;;;;;5.60;96922.00;;;;5110133;28;20210;-72
2023/04/03 04:06:16;;;;;;;1.97;1.70;;;;;5.40;96915.00;;;;5098085;28;20588;-74
2023/04/03 04:09:05;;;;;;;1.97;1.50;;;;;5.60;96922.00;;;;5108440;28;20206;-75
2023/04/03 04:11:54;;;;;;;2.77;2.20;;;;;5.60;96928.00;;;;5103537;28;20230;-74
2023/04/03 04:14:46;;;;;;;6.07;1.60;;;;;5.60;96921.00;;;;5106537;28;20485;-75
2023/04/03 04:17:35;;;;;;;3.97;3.23;;;;;5.50;96920.00;;;;5111735;28;20202;-74
2023/04/03 04:20:24;;;;;;;1.80;1.70;;;;;5.50;96915.00;;;;5111152;28;20230;-74
2023/04/03 04:23:15;;;;;;;1.30;1.20;;;;;5.60;96919.00;;;;5111547;28;20230;-74
2023/04/03 04:26:04;;;;;;;0.90;0.90;;;;;5.30;96917.00;;;;5107421;28;20226;-74
2023/04/03 04:28:53;;;;;;;1.10;1.00;;;;;5.50;96920.00;;;;5098869;28;20207;-73
2023/04/03 04:31:42;;;;;;;1.70;1.20;;;;;5.70;96922.00;;;;5109675;27;20280;-73
2023/04/03 04:34:31;;;;;;;1.40;1.33;;;;;5.50;96917.00;;;;5106932;28;20202;-73
2023/04/03 04:37:20;;;;;;;1.30;1.17;;;;;5.50;96936.00;;;;5108994;28;20229;-74
2023/04/03 04:40:11;;;;;;;0.97;0.97;;;;;5.50;96928.00;;;;5110718;28;20222;-74
2023/04/03 04:43:00;;;;;;;1.47;1.03;;;;;5.70;96946.00;;;;5105813;28;20580;-75
2023/04/03 04:45:49;;;;;;;1.17;1.03;;;;;5.40;96945.00;;;;5110098;28;20218;-73
2023/04/03 04:48:38;;;;;;;1.60;1.30;;;;;5.30;96948.00;;;;5111500;28;20642;-75
2023/04/03 04:51:27;;;;;;;3.07;1.37;;;;;5.50;96944.00;;;;5110569;28;20448;-74
2023/04/03 04:54:18;;;;;;;1.33;1.23;;;;;5.50;96948.00;;;;5099262;28;20195;-75
2023/04/03 04:57:10;;;;;;;1.10;1.00;;;;;5.60;96942.00;;;;5094140;28;20252;-74
2023/04/03 04:59:59;;;;;;;2.10;1.30;;;;;5.60;96942.00;;;;5102804;28;20219;-74
2023/04/03 05:02:48;;;;;;;1.10;1.00;;;;;5.70;96948.00;;;;5096635;28;20199;-74
2023/04/03 05:05:37;;;;;;;1.20;1.20;;;;;5.80;96955.00;;;;5097144;28;20709;-74
2023/04/03 05:08:26;;;;;;;0.93;0.87;;;;;5.80;96948.00;;;;5101911;28;20202;-74
2023/04/03 05:11:15;;;;;;;1.40;0.97;;;;;5.90;96957.00;;;;5093457;28;20235;-75
2023/04/03 05:14:06;;;;;;;1.20;1.00;;;;;5.80;96951.00;;;;5092548;28;20291;-74
2023/04/03 05:16:55;;;;;;;1.17;1.07;;;;;5.90;96956.00;;;;5100836;28;20199;-74
2023/04/03 05:19:44;;;;;;;1.20;1.07;;;;;6.10;96960.00;;;;5104839;28;20466;-74
2023/04/03 05:22:33;;;;;;;1.00;0.87;;;;;6.00;96961.00;;;;5104140;28;20237;-74
2023/04/03 05:25:22;;;;;;;1.10;0.90;;;;;6.00;96966.00;;;;5102628;28;20234;-74
2023/04/03 05:28:11;;;;;;;1.37;1.17;;;;;6.20;96960.00;;;;5105218;28;20423;-74
2023/04/03 05:31:01;;;;;;;1.73;1.30;;;;;6.00;96965.00;;;;5105325;28;20340;-74
2023/04/03 05:33:50;;;;;;;0.80;0.80;;;;;5.90;96958.00;;;;5105047;28;20202;-74
2023/04/03 05:36:39;;;;;;;1.10;0.97;;;;;6.10;96970.00;;;;5103621;27;20195;-74
2023/04/03 05:39:28;;;;;;;3.47;1.20;;;;;6.10;96971.00;;;;5104779;28;20243;-74
2023/04/03 05:42:17;;;;;;;3.10;0.90;;;;;6.10;96969.00;;;;5103213;28;20199;-71
2023/04/03 05:45:07;;;;;;;1.23;1.07;;;;;6.20;96975.00;;;;5097152;28;20207;-74
2023/04/03 05:47:57;;;;;;;2.77;1.00;;;;;5.80;96971.00;;;;5102382;28;20248;-65
2023/04/03 05:50:47;;;;;;;1.03;0.90;;;;;6.00;96967.00;;;;5104553;28;20662;-69
2023/04/03 05:53:37;;;;;;;2.77;1.10;;;;;6.40;96978.00;;;;5099035;28;20359;-72
2023/04/03 05:56:26;;;;;;;0.97;0.93;;;;;6.50;96977.00;;;;5114963;27;20202;-72
2023/04/03 05:59:15;;;;;;;1.10;1.10;;;;;6.70;96974.00;;;;5098873;28;20206;-73
2023/04/03 06:02:04;;;;;;;1.10;1.00;;;;;6.20;96980.00;;;;5109063;27;20209;-74
2023/04/03 06:04:55;;;;;;;1.93;1.40;;;;;6.70;96983.00;;;;5101542;28;20744;-75
2023/04/03 06:07:44;;;;;;;1.33;1.00;;;;;6.70;96981.00;;;;5108256;28;20203;-74
2023/04/03 06:10:33;;;;;;;0.93;0.80;;;;;6.70;96977.00;;;;5104417;28;20222;-74
2023/04/03 06:13:23;;;;;;;1.47;1.37;;;;;6.60;96989.00;;;;5099649;28;20214;-75
2023/04/03 06:16:15;;;;;;;0.80;0.80;;;;;7.00;96983.00;;;;5108844;27;20254;-75
2023/04/03 06:19:04;;;;;;;1.50;1.10;;;;;6.70;96978.00;;;;5103556;28;20242;-74
2023/04/03 06:21:54;;;;;;;0.77;0.77;;;;;6.40;96985.00;;;;5098662;28;20219;-73
2023/04/03 06:24:43;;;;;;;1.27;0.87;;;;;7.10;96986.00;;;;5103444;28;20606;-72
2023/04/03 06:27:32;;;;;;;0.90;0.90;;;;;7.10;96988.00;;;;5102385;28;20245;-75
2023/04/03 06:30:21;;;;;;;0.90;0.90;;;;;6.20;96985.00;;;;5101319;28;20226;-75
2023/04/03 06:33:10;;;;;;;1.00;1.00;;;;;6.90;96992.00;;;;5102055;28;20198;-75
2023/04/03 06:36:00;;;;;;;1.73;1.10;;;;;7.10;96993.00;;;;5094528;28;20566;-75
2023/04/03 06:38:50;;;;;;;0.77;0.77;;;;;7.00;96989.00;;;;5090110;28;20785;-74
2023/04/03 06:41:39;;;;;;;2.20;1.10;;;;;6.60;96981.00;;;;5092254;28;20222;-75
2023/04/03 06:44:28;;;;;;;3.27;1.80;;;;;7.20;96983.00;;;;5088981;28;20246;-74
2023/04/03 06:47:18;;;;;;;2.63;2.10;;;;;7.30;96973.00;;;;5092504;28;20223;-68
2023/04/03 06:50:08;;;;;;;1.23;1.13;;;;;7.50;96981.00;;;;5092611;28;20276;-75
2023/04/03 06:52:57;;;;;;;1.50;1.00;;;;;7.90;96975.00;;;;5095748;28;20697;-75
2023/04/03 06:55:48;;;;;;;1.23;1.10;;;;;7.70;96972.00;;;;5099744;28;20190;-74
2023/04/03 06:58:37;;;;;;;1.27;0.80;;;;;8.00;96983.00;;;;5105323;28;20210;-73
2023/04/03 07:01:27;;;;;;;1.47;0.90;;;;;7.80;96982.00;;;;5107186;28;20227;-66
2023/04/03 07:04:16;;;;;;;1.67;1.57;;;;;8.00;96981.00;;;;5098364;28;20210;-68
2023/04/03 07:07:05;;;;;;;1.50;1.33;;;;;8.10;96978.00;;;;5103413;28;20225;-67
2023/04/03 07:09:55;;;;;;;1.77;1.63;;;;;8.30;96976.00;;;;5104383;28;20199;-72
2023/04/03 07:12:46;;;;;;;1.77;1.67;;;;;7.80;96975.00;;;;5104716;28;20206;-76
2023/04/03 07:15:35;;;;;;;1.73;1.10;;;;;8.10;96973.00;;;;5107085;28;20210;-70
2023/04/03 07:18:25;;;;;;;0.87;0.83;;;;;7.60;96991.00;;;;5104015;28;20583;-74
2023/04/03 07:21:14;;;;;;;1.37;0.93;;;;;7.90;96998.00;;;;5098111;28;20233;-66
2023/04/03 07:24:03;;;;;;;1.10;1.00;;;;;7.90;96986.00;;;;5105363;28;20689;-67
2023/04/03 07:26:52;;;;;;;2.13;1.10;;;;;8.30;96998.00;;;;5107629;28;20257;-75
2023/04/03 07:29:42;;;;;;;1.13;1.03;;;;;8.40;97009.00;;;;5100076;28;20205;-74
2023/04/03 07:32:31;;;;;;;1.10;1.00;;;;;8.30;97001.00;;;;5107581;28;20708;-69
2023/04/03 07:35:20;;;;;;;0.80;0.80;;;;;8.20;96993.00;;;;5104714;28;20218;-68
2023/04/03 07:38:09;;;;;;;1.33;1.10;;;;;8.10;97009.00;;;;5106855;28;20282;-74
2023/04/03 07:40:59;;;;;;;0.97;0.83;;;;;7.90;97008.00;;;;5093679;28;20225;-75
2023/04/03 07:43:49;;;;;;;0.90;0.90;;;;;8.40;97016.00;;;;5090267;28;20203;-74
2023/04/03 07:46:40;;;;;;;1.53;0.87;;;;;8.90;97019.00;;;;5105224;28;20229;-73
2023/04/03 07:49:29;;;;;;;2.43;1.20;;;;;8.40;97019.00;;;;5094239;28;20285;-69
2023/04/03 07:52:18;;;;;;;1.00;0.90;;;;;8.20;97019.00;;;;5109195;28;20291;-75
2023/04/03 07:55:08;;;;;;;2.10;1.43;;;;;8.20;97010.00;;;;5104539;28;20211;-69
2023/04/03 07:57:57;;;;;;;1.33;1.13;;;;;8.80;97031.00;;;;5106794;28;20244;-67
2023/04/03 08:00:46;;;;;;;1.07;1.00;;;;;8.00;97008.00;;;;5108159;28;20251;-69
2023/04/03 08:03:37;;;;;;;1.00;0.90;;;;;8.30;97015.00;;;;5093297;28;20628;-74
2023/04/03 08:06:26;;;;;;;1.10;1.10;;;;;8.60;97034.00;;;;5098724;28;20223;-67
2023/04/03 08:09:21;;;;;;;1.67;0.93;;;;;8.90;97026.00;;;;5102878;28;20214;-72
2023/04/03 08:12:11;;;;;;;1.00;0.90;;;;;9.30;97039.00;;;;5092371;28;20223;-67
2023/04/03 08:15:02;;;;;;;1.03;0.90;;;;;9.00;97031.00;;;;5097267;28;20202;-71
2023/04/03 08:17:51;;;;;;;1.53;1.13;;;;;9.00;97031.00;;;;5101329;28;20822;-67
2023/04/03 08:20:42;;;;;;;0.90;0.90;;;;;9.20;97027.00;;;;5103508;28;20287;-63
2023/04/03 08:23:31;;;;;;;2.50;1.00;;;;;9.20;97027.00;;;;5105214;28;20195;-75
2023/04/03 08:26:21;;;;;;;0.80;0.80;;;;;9.50;97029.00;;;;5107841;28;20263;-75
2023/04/03 08:29:10;;;;;;;1.03;0.87;;;;;8.60;97021.00;;;;5086720;28;20203;-72
2023/04/03 08:31:59;;;;;;;2.93;1.00;;;;;9.30;97031.00;;;;5107046;28;20267;-76
2023/04/03 08:34:48;;;;;;;0.80;0.80;;;;;9.30;97033.00;;;;5104790;28;20205;-67
2023/04/03 08:37:39;;;;;;;0.90;0.90;;;;;8.70;97027.00;;;;5107660;28;20194;-73
2023/04/03 08:40:28;;;;;;;0.83;0.73;;;;;9.10;97027.00;;;;5110316;28;20230;-67
2023/04/03 08:43:31;;;;;;;1.03;0.83;;;;;9.40;97021.00;;;;5109831;28;20696;-75
2023/04/03 08:46:21;;;;;;;1.43;1.00;;;;;9.50;96999.00;;;;5111198;28;20615;-75
2023/04/03 08:49:15;;;;;;;0.73;0.70;;;;;9.00;97026.00;;;;5100197;28;20205;-65
2023/04/03 08:52:10;;;;;;;1.77;1.20;;;;;9.50;97044.00;;;;5105462;28;20614;-67
2023/04/03 08:55:03;;;;;;;0.77;0.70;;;;;9.60;97034.00;;;;5105628;28;20197;-69
2023/04/03 08:57:55;;;;;;;0.50;0.50;;;;;9.90;97031.00;;;;5106899;28;20233;-76
2023/04/03 09:00:47;;;;;;;0.63;0.63;;;;;9.80;97005.00;;;;5104649;28;20218;-68
2023/04/03 09:03:40;;;;;;;0.83;0.83;;;;;10.70;97032.00;;;;5108807;28;20202;-75
2023/04/03 09:06:32;;;;;;;0.80;0.70;;;;;11.00;97027.00;;;;5110306;28;20210;-76
2023/04/03 09:09:31;;;;;;;0.97;0.97;;;;;9.50;97007.00;;;;5110384;28;20248;-71
2023/04/03 09:12:26;;;;;;;0.80;0.67;;;;;10.70;97030.00;;;;5104875;28;20277;-66
2023/04/03 09:15:20;;;;;;;1.27;1.00;;;;;10.50;97006.00;;;;5106675;28;20203;-76
2023/04/03 09:18:16;;;;;;;1.07;0.93;;;;;11.30;97037.00;;;;5106622;28;20202;-75
2023/04/03 09:21:13;;;;;;;1.17;1.07;;;;;11.30;97027.00;;;;5107193;27;20227;-74
2023/04/03 09:24:03;;;;;;;2.50;1.47;;;;;10.00;97031.00;;;;5103405;28;21258;-76
2023/04/03 09:26:58;;;;;;;1.00;0.90;;;;;9.40;97042.00;;;;5097184;28;20198;-69
2023/04/03 09:29:49;;;;;;;1.07;0.97;;;;;9.20;97056.00;;;;5103769;28;20586;-74
2023/04/03 09:32:38;;;;;;;1.03;0.70;;;;;8.70;97033.00;;;;5108408;28;20198;-75
2023/04/03 09:35:28;;;;;;;4.63;1.20;;;;;9.70;97048.00;;;;5104572;28;20565;-72
2023/04/03 09:38:25;;;;;;;0.70;0.70;;;;;8.90;97050.00;;;;5104003;28;20202;-69
2023/04/03 09:41:17;;;;;;;0.90;0.90;;;;;9.60;97054.00;;;;5099450;28;20328;-72
2023/04/03 09:44:22;;;;;;;1.00;0.87;;;;;9.30;97036.00;;;;5095767;28;20218;-76
2023/04/03 09:47:27;;;;;;;0.73;0.70;;;;;9.30;97042.00;;;;5107756;28;20202;-67
2023/04/03 09:50:23;;;;;;;1.07;0.97;;;;;9.10;97030.00;;;;5107933;28;20226;-67
2023/04/03 09:53:29;;;;;;;2.90;1.40;;;;;8.60;97002.00;;;;5102285;28;20209;-73
2023/04/03 09:56:25;;;;;;;1.13;0.80;;;;;9.50;97024.00;;;;5107363;28;20487;-63
2023/04/03 09:59:16;;;;;;;0.70;0.70;;;;;9.30;97025.00;;;;5107693;28;20202;-72
2023/04/03 10:02:39;;;;;;;1.10;1.00;;;;;10.70;97013.00;;;;5105084;28;20235;-68
2023/04/03 10:05:33;;;;;;;0.70;0.70;;;;;11.50;97012.00;;;;5093226;28;20696;-71
2023/04/03 10:08:25;;;;;;;3.90;1.90;;;;;11.30;97005.00;;;;5105773;28;20720;-74
2023/04/03 10:11:16;;;;;;;4.90;2.47;;;;;11.50;97003.00;;;;5102419;28;20753;-74
2023/04/03 10:14:05;;;;;;;1.60;1.50;;;;;12.20;97013.00;;;;5105235;28;20254;-68
2023/04/03 10:17:00;;;;;;;0.70;0.70;;;;;11.30;97014.00;;;;5104243;28;20206;-75
2023/04/03 10:19:54;;;;;;;0.67;0.60;;;;;11.40;97000.00;;;;5100530;28;20195;-75
2023/04/03 10:22:55;;;;;;;1.50;1.17;;;;;12.90;96985.00;;;;5098569;28;20195;-70
2023/04/03 10:25:54;;;;;;;2.73;1.27;;;;;12.20;97026.00;;;;5100299;28;20240;-67
2023/04/03 10:28:49;;;;;;;1.17;1.07;;;;;12.20;97018.00;;;;5104991;28;20588;-65
2023/04/03 10:31:44;;;;;;;0.80;0.80;;;;;12.30;97032.00;;;;5098143;28;20226;-68
2023/04/03 10:34:36;;;;;;;1.37;1.20;;;;;12.70;97032.00;;;;5107156;28;20202;-70
2023/04/03 10:37:28;;;;;;;1.70;1.07;;;;;11.00;97014.00;;;;5107114;28;20291;-67
2023/04/03 10:40:25;;;;;;;0.83;0.80;;;;;11.50;97032.00;;;;5102336;28;20223;-69
2023/04/03 10:43:19;;;;;;;1.07;0.97;;;;;12.20;97013.00;;;;5097643;28;20279;-68
2023/04/03 10:46:10;;;;;;;1.30;1.20;;;;;12.60;97035.00;;;;5101896;28;20196;-75
2023/04/03 10:49:20;;;;;;;1.87;1.30;;;;;13.00;97037.00;;;;5092169;28;20290;-69
2023/04/03 10:52:14;;;;;;;1.80;0.93;;;;;12.10;97033.00;;;;5108894;27;20690;-71
2023/04/03 10:55:11;;;;;;;0.97;0.90;;;;;12.40;96978.00;;;;5104217;28;20209;-75
2023/04/03 10:58:02;;;;;;;1.07;0.93;;;;;12.10;97021.00;;;;5102830;28;20202;-64
2023/04/03 11:00:53;;;;;;;1.00;0.90;;;;;11.70;96970.00;;;;5104989;28;20801;-76
2023/04/03 11:03:44;;;;;;;1.70;1.10;;;;;11.60;97025.00;;;;5108850;28;20199;-73
2023/04/03 11:06:37;;;;;;;2.10;1.30;;;;;11.80;97025.00;;;;5108286;28;20657;-73
2023/04/03 11:09:29;;;;;;;0.90;0.80;;;;;10.30;97002.00;;;;5103206;28;20351;-74
2023/04/03 11:12:26;;;;;;;1.20;0.93;;;;;12.00;96973.00;;;;5108039;28;20762;-66
2023/04/03 11:15:18;;;;;;;1.53;0.90;;;;;13.30;96971.00;;;;5090147;28;20207;-71
2023/04/03 11:18:11;;;;;;;2.33;0.90;;;;;13.40;96961.00;;;;5094457;28;20203;-71
2023/04/03 11:21:04;;;;;;;1.00;0.90;;;;;12.80;96953.00;;;;5104520;28;20218;-75
2023/04/03 11:23:53;;;;;;;1.40;1.00;;;;;12.20;96941.00;;;;5100258;28;20211;-76
2023/04/03 11:26:44;;;;;;;1.00;0.83;;;;;12.70;96953.00;;;;5100112;28;20198;-76
2023/04/03 11:29:36;;;;;;;0.90;0.90;;;;;13.30;96953.00;;;;5103870;28;20673;-68
2023/04/03 11:32:53;;;;;;;1.13;0.90;;;;;13.20;96948.00;;;;5102521;28;20206;-75
2023/04/03 11:35:45;;;;;;;1.13;0.83;;;;;12.30;96924.00;;;;5106422;28;20206;-70
2023/04/03 11:38:36;;;;;;;0.60;0.60;;;;;12.50;96923.00;;;;5103396;28;20661;-75
2023/04/03 11:41:29;;;;;;;1.47;1.27;;;;;12.50;96935.00;;;;5104522;28;20631;-65
2023/04/03 11:44:36;;;;;;;1.37;1.00;;;;;13.10;96987.00;;;;5102616;28;20207;-71
2023/04/03 11:47:48;;;;;;;0.70;0.70;;;;;9.30;96909.00;;;;5098062;28;20229;-67
2023/04/03 11:50:45;;;;;;;1.60;1.10;;;;;13.30;96944.00;;;;5107225;28;20233;-69
2023/04/03 11:53:35;;;;;;;1.03;0.93;;;;;12.30;96975.00;;;;5104672;28;20630;-70
2023/04/03 11:56:32;;;;;;;1.80;0.90;;;;;11.80;96911.00;;;;5110720;28;20685;-71
2023/04/03 11:59:25;;;;;;;1.33;1.23;;;;;12.80;96990.00;;;;5108131;28;20252;-70
2023/04/03 12:02:36;;;;;;;1.30;1.20;;;;;13.30;96971.00;;;;5106352;28;20198;-68
2023/04/03 12:05:33;;;;;;;1.00;1.00;;;;;13.60;96972.00;;;;5109579;28;20203;-66
2023/04/03 12:08:27;;;;;;;4.10;2.53;;;;;11.70;96971.00;;;;5111362;28;20705;-66
2023/04/03 12:11:20;;;;;;;1.30;1.20;;;;;11.50;96890.00;;;;5107904;28;20279;-76
2023/04/03 12:14:16;;;;;;;1.30;1.20;;;;;13.50;96906.00;;;;5104961;28;20686;-68
2023/04/03 12:17:21;;;;;;;1.17;1.00;;;;;11.00;96929.00;;;;5107289;28;20206;-76
2023/04/03 12:20:43;;;;;;;3.77;1.60;;;;;12.90;96980.00;;;;5105873;28;20232;-65
2023/04/03 12:23:35;;;;;;;1.70;1.37;;;;;13.90;96908.00;;;;5107834;28;20210;-65
2023/04/03 12:26:26;;;;;;;2.00;1.20;;;;;14.90;96901.00;;;;5108806;28;20276;-71
2023/04/03 12:29:21;;;;;;;1.77;1.60;;;;;15.30;96894.00;;;;5105213;28;20250;-68
2023/04/03 12:32:19;;;;;;;1.43;1.17;;;;;14.60;96896.00;;;;5101517;28;20207;-76
2023/04/03 12:35:15;;;;;;;1.27;0.90;;;;;15.00;96899.00;;;;5107185;28;20248;-76
2023/04/03 12:38:34;;;;;;;1.20;1.00;;;;;14.40;96944.00;;;;5104360;28;20194;-76
2023/04/03 12:41:38;;;;;;;1.93;0.90;;;;;13.60;96953.00;;;;5108128;28;20241;-65
2023/04/03 12:44:41;;;;;;;1.10;0.80;;;;;14.30;96860.00;;;;5096551;28;20214;-74
2023/04/03 12:47:35;;;;;;;1.40;0.90;;;;;15.10;96868.00;;;;5097430;28;20699;-66
2023/04/03 12:50:26;;;;;;;1.80;0.87;;;;;12.60;96944.00;;;;5106394;28;20234;-67
2023/04/03 12:53:18;;;;;;;1.40;0.83;;;;;12.90;96880.00;;;;5109248;28;20199;-69
2023/04/03 12:56:26;;;;;;;1.30;0.70;;;;;14.40;96878.00;;;;5108046;28;20252;-68
2023/04/03 12:59:19;;;;;;;5.90;4.17;;;;;13.60;96882.00;;;;5102834;28;20251;-67
2023/04/03 13:02:24;;;;;;;1.23;1.03;;;;;13.50;96870.00;;;;5108038;28;20267;-75
2023/04/03 13:05:17;;;;;;;0.60;0.60;;;;;12.00;96839.00;;;;5107586;28;20210;-72
2023/04/03 13:08:10;;;;;;;1.57;0.97;;;;;11.80;96834.00;;;;5091223;28;20234;-70
2023/04/03 13:11:02;;;;;;;1.80;1.17;;;;;12.20;96937.00;;;;5107107;28;20233;-71
2023/04/03 13:13:58;;;;;;;0.70;0.70;;;;;11.40;96859.00;;;;5095201;28;20264;-69
2023/04/03 13:16:56;;;;;;;0.70;0.70;;;;;13.20;96843.00;;;;5104104;28;20213;-75
2023/04/03 13:19:46;;;;;;;1.03;0.73;;;;;12.80;96915.00;;;;5101793;28;20191;-67
2023/04/03 13:22:38;;;;;;;1.60;1.23;;;;;13.80;96949.00;;;;5108464;28;20274;-67
2023/04/03 13:25:29;;;;;;;1.20;1.10;;;;;12.90;96931.00;;;;5102816;28;20244;-67
2023/04/03 13:28:21;;;;;;;2.07;1.23;;;;;12.20;96933.00;;;;5108786;28;20228;-72
2023/04/03 13:31:20;;;;;;;1.03;0.97;;;;;14.30;96909.00;;;;5105230;28;20227;-74
2023/04/03 13:34:21;;;;;;;1.80;1.60;;;;;13.60;96894.00;;;;5100319;28;20303;-69
2023/04/03 13:37:21;;;;;;;1.43;1.00;;;;;13.10;96885.00;;;;5102068;28;20202;-76
2023/04/03 13:40:13;;;;;;;1.20;1.10;;;;;13.80;96857.00;;;;5103060;28;20232;-75
2023/04/03 13:43:07;;;;;;;1.17;1.07;;;;;13.00;96872.00;;;;5101575;28;20203;-74
2023/04/03 13:46:04;;;;;;;0.83;0.83;;;;;13.70;96854.00;;;;5097700;28;20198;-76
2023/04/03 13:48:55;;;;;;;2.60;1.23;;;;;13.60;96914.00;;;;5104296;28;20198;-70
2023/04/03 13:51:47;;;;;;;1.13;0.70;;;;;15.00;96859.00;;;;5107846;27;20227;-68
2023/04/03 13:54:40;;;;;;;1.13;0.90;;;;;15.50;96868.00;;;;5102578;28;20198;-68
2023/04/03 13:57:29;;;;;;;0.80;0.77;;;;;14.60;96887.00;;;;5109807;28;20234;-67
2023/04/03 14:00:34;;;;;;;2.03;1.17;;;;;15.30;96887.00;;;;5108709;28;20702;-74
2023/04/03 14:03:25;;;;;;;4.00;1.10;;;;;15.30;96872.00;;;;5105897;28;20263;-73
2023/04/03 14:06:17;;;;;;;1.23;0.93;;;;;14.50;96862.00;;;;5108669;28;20199;-72
2023/04/03 14:09:07;;;;;;;0.87;0.87;;;;;14.00;96834.00;;;;5109419;28;20338;-76
2023/04/03 14:11:58;;;;;;;1.20;0.90;;;;;15.00;96842.00;;;;5104441;28;20230;-74
2023/04/03 14:14:48;;;;;;;1.20;1.10;;;;;13.90;96843.00;;;;5107756;28;20646;-75
2023/04/03 14:17:37;;;;;;;1.33;0.97;;;;;13.40;96834.00;;;;5107723;28;20221;-75
2023/04/03 14:20:27;;;;;;;2.67;1.20;;;;;15.80;96845.00;;;;5108960;28;20333;-69
2023/04/03 14:23:16;;;;;;;3.30;0.97;;;;;13.60;96897.00;;;;5107778;28;20279;-71
2023/04/03 14:26:12;;;;;;;3.17;0.90;;;;;13.30;96829.00;;;;5105411;28;20218;-74
2023/04/03 14:29:01;;;;;;;0.93;0.90;;;;;12.10;96826.00;;;;5105043;28;20198;-64